Terminal Aerodrome Forecast
Issued by NWS

Home | Current Version | Previous Version | Text Only | Print | Product List | Glossary On
Versions: 1 2 3 4 5 6 7 8 9 10 11 12 13 14 15 16 17 18 19 20
294
FTUS43 KILX 091618 AAA
TAFCMI
TAF AMD
KCMI 091618Z 0916/1012 30015KT 3SM -SN BR OVC015
      TEMPO 0916/0917 1SM -SN BR
     FM091800 30015G22KT 5SM -SN OVC025
     FM100300 30015KT P6SM BKN025=

USA.gov is the U.S. government's official web portal to all federal, state and local government web resources and services.